sensor_id;sensor_type;location;lat;lon;timestamp;P1;durP1;ratioP1;P2;durP2;ratioP2
23317;SDS011;11831;55.918;37.746;2023-12-07T00:01:55;26.75;;;16.27;;
23317;SDS011;11831;55.918;37.746;2023-12-07T00:04:21;32.30;;;18.55;;
23317;SDS011;11831;55.918;37.746;2023-12-07T00:06:47;29.00;;;17.08;;
23317;SDS011;11831;55.918;37.746;2023-12-07T00:09:13;28.80;;;16.50;;
23317;SDS011;11831;55.918;37.746;2023-12-07T00:11:39;28.52;;;16.15;;
23317;SDS011;11831;55.918;37.746;2023-12-07T00:14:05;29.35;;;17.23;;
23317;SDS011;11831;55.918;37.746;2023-12-07T00:16:31;30.20;;;15.85;;
23317;SDS011;11831;55.918;37.746;2023-12-07T00:18:57;25.12;;;15.65;;
23317;SDS011;11831;55.918;37.746;2023-12-07T00:21:23;25.37;;;14.20;;
23317;SDS011;11831;55.918;37.746;2023-12-07T00:23:49;23.83;;;14.50;;
23317;SDS011;11831;55.918;37.746;2023-12-07T00:26:15;24.58;;;14.45;;
23317;SDS011;11831;55.918;37.746;2023-12-07T00:28:41;23.98;;;13.65;;
23317;SDS011;11831;55.918;37.746;2023-12-07T00:31:07;22.27;;;13.38;;
23317;SDS011;11831;55.918;37.746;2023-12-07T00:33:34;24.77;;;14.27;;
23317;SDS011;11831;55.918;37.746;2023-12-07T00:36:00;27.10;;;13.98;;
23317;SDS011;11831;55.918;37.746;2023-12-07T00:38:26;22.02;;;13.02;;
23317;SDS011;11831;55.918;37.746;2023-12-07T00:40:52;23.55;;;13.48;;
23317;SDS011;11831;55.918;37.746;2023-12-07T00:43:18;21.77;;;13.13;;
23317;SDS011;11831;55.918;37.746;2023-12-07T00:45:44;24.67;;;14.48;;
23317;SDS011;11831;55.918;37.746;2023-12-07T00:48:10;24.60;;;13.65;;
23317;SDS011;11831;55.918;37.746;2023-12-07T00:50:36;21.23;;;13.07;;
23317;SDS011;11831;55.918;37.746;2023-12-07T00:53:02;23.50;;;13.30;;
23317;SDS011;11831;55.918;37.746;2023-12-07T00:55:28;23.27;;;13.30;;
23317;SDS011;11831;55.918;37.746;2023-12-07T00:57:54;27.30;;;13.23;;
23317;SDS011;11831;55.918;37.746;2023-12-07T01:00:20;20.52;;;13.07;;
23317;SDS011;11831;55.918;37.746;2023-12-07T01:02:46;23.15;;;13.43;;
23317;SDS011;11831;55.918;37.746;2023-12-07T01:05:12;22.35;;;12.90;;
23317;SDS011;11831;55.918;37.746;2023-12-07T01:07:38;21.52;;;12.10;;
23317;SDS011;11831;55.918;37.746;2023-12-07T01:10:04;19.73;;;12.40;;
23317;SDS011;11831;55.918;37.746;2023-12-07T01:12:31;22.92;;;12.52;;
23317;SDS011;11831;55.918;37.746;2023-12-07T01:14:57;20.27;;;12.02;;
23317;SDS011;11831;55.918;37.746;2023-12-07T01:17:23;21.08;;;11.32;;
23317;SDS011;11831;55.918;37.746;2023-12-07T01:19:49;22.08;;;11.88;;
23317;SDS011;11831;55.918;37.746;2023-12-07T01:22:15;18.73;;;10.95;;
23317;SDS011;11831;55.918;37.746;2023-12-07T01:24:41;17.87;;;11.63;;
23317;SDS011;11831;55.918;37.746;2023-12-07T01:27:07;20.55;;;12.18;;
23317;SDS011;11831;55.918;37.746;2023-12-07T01:29:33;20.45;;;11.75;;
23317;SDS011;11831;55.918;37.746;2023-12-07T01:31:59;18.58;;;11.57;;
23317;SDS011;11831;55.918;37.746;2023-12-07T01:34:25;22.00;;;12.52;;
23317;SDS011;11831;55.918;37.746;2023-12-07T01:36:51;20.58;;;12.13;;
23317;SDS011;11831;55.918;37.746;2023-12-07T01:39:17;20.35;;;11.90;;
23317;SDS011;11831;55.918;37.746;2023-12-07T01:41:43;18.92;;;11.98;;
23317;SDS011;11831;55.918;37.746;2023-12-07T01:44:09;18.02;;;11.82;;
23317;SDS011;11831;55.918;37.746;2023-12-07T01:46:35;17.15;;;11.15;;
23317;SDS011;11831;55.918;37.746;2023-12-07T01:49:01;20.60;;;10.90;;
23317;SDS011;11831;55.918;37.746;2023-12-07T01:51:27;18.58;;;11.20;;
23317;SDS011;11831;55.918;37.746;2023-12-07T01:53:53;17.30;;;11.55;;
23317;SDS011;11831;55.918;37.746;2023-12-07T01:56:20;21.52;;;11.63;;
23317;SDS011;11831;55.918;37.746;2023-12-07T01:58:46;20.08;;;11.23;;
23317;SDS011;11831;55.918;37.746;2023-12-07T02:01:12;20.00;;;11.68;;
23317;SDS011;11831;55.918;37.746;2023-12-07T02:03:41;19.80;;;12.02;;
23317;SDS011;11831;55.918;37.746;2023-12-07T02:06:07;20.45;;;11.40;;
23317;SDS011;11831;55.918;37.746;2023-12-07T02:08:36;20.25;;;11.50;;
23317;SDS011;11831;55.918;37.746;2023-12-07T02:11:09;19.43;;;12.27;;
23317;SDS011;11831;55.918;37.746;2023-12-07T02:13:36;20.35;;;11.95;;
23317;SDS011;11831;55.918;37.746;2023-12-07T02:16:03;22.77;;;11.77;;
23317;SDS011;11831;55.918;37.746;2023-12-07T02:18:42;19.55;;;11.48;;
23317;SDS011;11831;55.918;37.746;2023-12-07T02:21:24;20.73;;;11.18;;
23317;SDS011;11831;55.918;37.746;2023-12-07T02:23:51;20.33;;;11.35;;
23317;SDS011;11831;55.918;37.746;2023-12-07T02:29:15;20.60;;;12.00;;
23317;SDS011;11831;55.918;37.746;2023-12-07T02:31:41;19.12;;;11.38;;
23317;SDS011;11831;55.918;37.746;2023-12-07T02:34:07;18.42;;;11.70;;
23317;SDS011;11831;55.918;37.746;2023-12-07T02:36:34;19.30;;;11.45;;
23317;SDS011;11831;55.918;37.746;2023-12-07T02:39:02;19.05;;;11.77;;
23317;SDS011;11831;55.918;37.746;2023-12-07T02:41:32;17.17;;;11.57;;
23317;SDS011;11831;55.918;37.746;2023-12-07T02:43:59;19.10;;;11.30;;
23317;SDS011;11831;55.918;37.746;2023-12-07T02:46:25;20.33;;;12.10;;
23317;SDS011;11831;55.918;37.746;2023-12-07T02:48:51;22.08;;;12.30;;
23317;SDS011;11831;55.918;37.746;2023-12-07T02:51:17;21.73;;;12.73;;
23317;SDS011;11831;55.918;37.746;2023-12-07T02:53:44;22.48;;;12.55;;
23317;SDS011;11831;55.918;37.746;2023-12-07T02:56:10;21.65;;;12.63;;
23317;SDS011;11831;55.918;37.746;2023-12-07T02:58:36;19.70;;;12.43;;
23317;SDS011;11831;55.918;37.746;2023-12-07T03:01:02;19.15;;;12.10;;
23317;SDS011;11831;55.918;37.746;2023-12-07T03:03:28;22.33;;;12.07;;
23317;SDS011;11831;55.918;37.746;2023-12-07T03:05:54;26.98;;;12.93;;
23317;SDS011;11831;55.918;37.746;2023-12-07T03:08:20;21.25;;;12.23;;
23317;SDS011;11831;55.918;37.746;2023-12-07T03:10:46;21.73;;;12.80;;
23317;SDS011;11831;55.918;37.746;2023-12-07T03:13:12;24.10;;;13.85;;
23317;SDS011;11831;55.918;37.746;2023-12-07T03:15:38;20.35;;;12.93;;
23317;SDS011;11831;55.918;37.746;2023-12-07T03:18:04;24.25;;;14.15;;
23317;SDS011;11831;55.918;37.746;2023-12-07T03:20:31;23.60;;;13.77;;
23317;SDS011;11831;55.918;37.746;2023-12-07T03:22:57;24.08;;;13.50;;
23317;SDS011;11831;55.918;37.746;2023-12-07T03:25:23;21.30;;;12.75;;
23317;SDS011;11831;55.918;37.746;2023-12-07T03:27:49;23.58;;;13.57;;
23317;SDS011;11831;55.918;37.746;2023-12-07T03:30:16;24.33;;;13.48;;
23317;SDS011;11831;55.918;37.746;2023-12-07T03:32:42;22.17;;;12.93;;
23317;SDS011;11831;55.918;37.746;2023-12-07T03:35:08;21.23;;;12.23;;
23317;SDS011;11831;55.918;37.746;2023-12-07T03:37:34;22.37;;;12.52;;
23317;SDS011;11831;55.918;37.746;2023-12-07T03:40:00;25.10;;;13.30;;
23317;SDS011;11831;55.918;37.746;2023-12-07T03:42:26;20.08;;;12.75;;
23317;SDS011;11831;55.918;37.746;2023-12-07T03:44:52;20.00;;;11.95;;
23317;SDS011;11831;55.918;37.746;2023-12-07T03:47:19;24.37;;;12.13;;
23317;SDS011;11831;55.918;37.746;2023-12-07T03:49:45;22.75;;;12.15;;
23317;SDS011;11831;55.918;37.746;2023-12-07T03:52:12;22.87;;;12.25;;
23317;SDS011;11831;55.918;37.746;2023-12-07T03:54:38;23.70;;;12.73;;
23317;SDS011;11831;55.918;37.746;2023-12-07T03:57:04;22.27;;;12.15;;
23317;SDS011;11831;55.918;37.746;2023-12-07T03:59:30;22.40;;;13.18;;
23317;SDS011;11831;55.918;37.746;2023-12-07T04:01:56;20.52;;;12.52;;
23317;SDS011;11831;55.918;37.746;2023-12-07T04:04:22;21.90;;;11.77;;
23317;SDS011;11831;55.918;37.746;2023-12-07T04:06:48;18.48;;;11.52;;
23317;SDS011;11831;55.918;37.746;2023-12-07T04:09:14;21.73;;;12.45;;
23317;SDS011;11831;55.918;37.746;2023-12-07T04:11:40;19.83;;;11.80;;
23317;SDS011;11831;55.918;37.746;2023-12-07T04:14:06;21.73;;;11.63;;
23317;SDS011;11831;55.918;37.746;2023-12-07T04:16:32;20.83;;;12.55;;
23317;SDS011;11831;55.918;37.746;2023-12-07T04:18:58;21.65;;;12.32;;
23317;SDS011;11831;55.918;37.746;2023-12-07T04:21:24;18.48;;;11.57;;
23317;SDS011;11831;55.918;37.746;2023-12-07T04:23:50;21.50;;;11.90;;
23317;SDS011;11831;55.918;37.746;2023-12-07T04:26:16;20.52;;;11.23;;
23317;SDS011;11831;55.918;37.746;2023-12-07T04:28:42;23.20;;;12.65;;
23317;SDS011;11831;55.918;37.746;2023-12-07T04:31:08;18.90;;;11.70;;
23317;SDS011;11831;55.918;37.746;2023-12-07T04:33:34;20.48;;;12.05;;
23317;SDS011;11831;55.918;37.746;2023-12-07T04:36:00;18.55;;;11.25;;
23317;SDS011;11831;55.918;37.746;2023-12-07T04:38:26;18.95;;;11.05;;
23317;SDS011;11831;55.918;37.746;2023-12-07T04:40:52;19.65;;;11.02;;
23317;SDS011;11831;55.918;37.746;2023-12-07T04:43:18;19.92;;;11.32;;
23317;SDS011;11831;55.918;37.746;2023-12-07T04:45:44;20.20;;;10.48;;
23317;SDS011;11831;55.918;37.746;2023-12-07T04:48:10;20.77;;;11.00;;
23317;SDS011;11831;55.918;37.746;2023-12-07T04:50:36;20.33;;;10.88;;
23317;SDS011;11831;55.918;37.746;2023-12-07T04:53:02;20.02;;;10.95;;
23317;SDS011;11831;55.918;37.746;2023-12-07T04:55:29;20.02;;;11.73;;
23317;SDS011;11831;55.918;37.746;2023-12-07T04:57:54;19.35;;;10.80;;
23317;SDS011;11831;55.918;37.746;2023-12-07T05:00:20;18.35;;;10.63;;
23317;SDS011;11831;55.918;37.746;2023-12-07T05:02:47;20.50;;;11.63;;
23317;SDS011;11831;55.918;37.746;2023-12-07T05:05:13;19.98;;;11.48;;
23317;SDS011;11831;55.918;37.746;2023-12-07T05:07:40;21.35;;;11.77;;
23317;SDS011;11831;55.918;37.746;2023-12-07T05:10:06;20.05;;;11.38;;
23317;SDS011;11831;55.918;37.746;2023-12-07T05:12:32;20.98;;;11.82;;
23317;SDS011;11831;55.918;37.746;2023-12-07T05:14:58;24.42;;;11.73;;
23317;SDS011;11831;55.918;37.746;2023-12-07T05:17:24;23.15;;;12.65;;
23317;SDS011;11831;55.918;37.746;2023-12-07T05:19:50;22.42;;;12.15;;
23317;SDS011;11831;55.918;37.746;2023-12-07T05:22:16;22.40;;;12.43;;
23317;SDS011;11831;55.918;37.746;2023-12-07T05:24:42;21.23;;;12.32;;
23317;SDS011;11831;55.918;37.746;2023-12-07T05:27:08;19.83;;;11.63;;
23317;SDS011;11831;55.918;37.746;2023-12-07T05:29:34;24.02;;;13.38;;
23317;SDS011;11831;55.918;37.746;2023-12-07T05:32:00;25.80;;;14.18;;
23317;SDS011;11831;55.918;37.746;2023-12-07T05:34:26;25.35;;;13.05;;
23317;SDS011;11831;55.918;37.746;2023-12-07T05:36:52;24.80;;;12.98;;
23317;SDS011;11831;55.918;37.746;2023-12-07T05:39:18;23.75;;;13.38;;
23317;SDS011;11831;55.918;37.746;2023-12-07T05:41:44;24.65;;;13.80;;
23317;SDS011;11831;55.918;37.746;2023-12-07T05:44:12;24.58;;;12.63;;
23317;SDS011;11831;55.918;37.746;2023-12-07T05:46:38;24.08;;;13.55;;
23317;SDS011;11831;55.918;37.746;2023-12-07T05:49:09;25.52;;;13.55;;
23317;SDS011;11831;55.918;37.746;2023-12-07T05:51:35;24.65;;;13.73;;
23317;SDS011;11831;55.918;37.746;2023-12-07T05:54:01;24.85;;;13.13;;
23317;SDS011;11831;55.918;37.746;2023-12-07T05:56:27;24.65;;;13.93;;
23317;SDS011;11831;55.918;37.746;2023-12-07T05:58:54;24.20;;;13.55;;
23317;SDS011;11831;55.918;37.746;2023-12-07T06:01:20;25.02;;;13.43;;
23317;SDS011;11831;55.918;37.746;2023-12-07T06:03:46;29.23;;;14.27;;
23317;SDS011;11831;55.918;37.746;2023-12-07T06:06:12;24.05;;;13.27;;
23317;SDS011;11831;55.918;37.746;2023-12-07T06:08:38;26.85;;;13.52;;
23317;SDS011;11831;55.918;37.746;2023-12-07T06:11:04;26.92;;;13.68;;
23317;SDS011;11831;55.918;37.746;2023-12-07T06:13:30;23.80;;;13.38;;
23317;SDS011;11831;55.918;37.746;2023-12-07T06:15:56;23.95;;;13.13;;
23317;SDS011;11831;55.918;37.746;2023-12-07T06:18:22;22.17;;;13.30;;
23317;SDS011;11831;55.918;37.746;2023-12-07T06:20:47;25.00;;;13.98;;
23317;SDS011;11831;55.918;37.746;2023-12-07T06:23:13;26.37;;;14.43;;
23317;SDS011;11831;55.918;37.746;2023-12-07T06:25:39;27.33;;;13.88;;
23317;SDS011;11831;55.918;37.746;2023-12-07T06:28:05;27.25;;;14.87;;
23317;SDS011;11831;55.918;37.746;2023-12-07T06:30:32;21.90;;;13.60;;
23317;SDS011;11831;55.918;37.746;2023-12-07T06:32:58;25.65;;;14.13;;
23317;SDS011;11831;55.918;37.746;2023-12-07T06:35:24;26.98;;;14.38;;
23317;SDS011;11831;55.918;37.746;2023-12-07T06:37:50;30.60;;;14.52;;
23317;SDS011;11831;55.918;37.746;2023-12-07T06:40:15;29.65;;;14.98;;
23317;SDS011;11831;55.918;37.746;2023-12-07T06:42:41;26.65;;;14.50;;
23317;SDS011;11831;55.918;37.746;2023-12-07T06:45:07;27.95;;;15.27;;
23317;SDS011;11831;55.918;37.746;2023-12-07T06:47:39;33.30;;;16.77;;
23317;SDS011;11831;55.918;37.746;2023-12-07T06:50:05;29.92;;;17.40;;
23317;SDS011;11831;55.918;37.746;2023-12-07T06:52:38;32.08;;;17.25;;
23317;SDS011;11831;55.918;37.746;2023-12-07T06:55:05;36.03;;;17.10;;
23317;SDS011;11831;55.918;37.746;2023-12-07T06:57:31;28.50;;;17.00;;
23317;SDS011;11831;55.918;37.746;2023-12-07T06:59:57;31.58;;;15.75;;
23317;SDS011;11831;55.918;37.746;2023-12-07T07:02:24;29.58;;;16.65;;
23317;SDS011;11831;55.918;37.746;2023-12-07T07:04:50;34.65;;;16.33;;
23317;SDS011;11831;55.918;37.746;2023-12-07T07:07:16;32.92;;;15.60;;
23317;SDS011;11831;55.918;37.746;2023-12-07T07:09:41;30.95;;;15.68;;
23317;SDS011;11831;55.918;37.746;2023-12-07T07:12:08;26.90;;;14.52;;
23317;SDS011;11831;55.918;37.746;2023-12-07T07:14:34;30.45;;;14.70;;
23317;SDS011;11831;55.918;37.746;2023-12-07T07:17:00;27.02;;;14.50;;
23317;SDS011;11831;55.918;37.746;2023-12-07T07:19:26;26.90;;;14.87;;
23317;SDS011;11831;55.918;37.746;2023-12-07T07:21:52;24.98;;;14.30;;
23317;SDS011;11831;55.918;37.746;2023-12-07T07:24:18;25.48;;;14.15;;
23317;SDS011;11831;55.918;37.746;2023-12-07T07:26:44;23.12;;;12.65;;
23317;SDS011;11831;55.918;37.746;2023-12-07T07:29:10;29.25;;;14.23;;
23317;SDS011;11831;55.918;37.746;2023-12-07T07:31:36;23.58;;;12.77;;
23317;SDS011;11831;55.918;37.746;2023-12-07T07:34:02;28.95;;;14.18;;
23317;SDS011;11831;55.918;37.746;2023-12-07T07:36:28;23.42;;;12.93;;
23317;SDS011;11831;55.918;37.746;2023-12-07T07:38:54;20.33;;;12.82;;
23317;SDS011;11831;55.918;37.746;2023-12-07T07:41:21;20.92;;;11.55;;
23317;SDS011;11831;55.918;37.746;2023-12-07T07:43:47;22.08;;;13.02;;
23317;SDS011;11831;55.918;37.746;2023-12-07T07:46:13;21.98;;;12.85;;
23317;SDS011;11831;55.918;37.746;2023-12-07T07:48:39;23.33;;;12.30;;
23317;SDS011;11831;55.918;37.746;2023-12-07T07:51:06;21.73;;;12.43;;
23317;SDS011;11831;55.918;37.746;2023-12-07T07:53:32;25.15;;;13.75;;
23317;SDS011;11831;55.918;37.746;2023-12-07T07:55:58;24.95;;;13.15;;
23317;SDS011;11831;55.918;37.746;2023-12-07T07:58:24;27.05;;;14.00;;
23317;SDS011;11831;55.918;37.746;2023-12-07T08:00:50;26.87;;;13.50;;
23317;SDS011;11831;55.918;37.746;2023-12-07T08:03:17;24.02;;;13.35;;
23317;SDS011;11831;55.918;37.746;2023-12-07T08:05:43;23.20;;;12.57;;
23317;SDS011;11831;55.918;37.746;2023-12-07T08:08:10;22.37;;;12.15;;
23317;SDS011;11831;55.918;37.746;2023-12-07T08:10:36;21.52;;;12.63;;
23317;SDS011;11831;55.918;37.746;2023-12-07T08:13:02;25.73;;;12.52;;
23317;SDS011;11831;55.918;37.746;2023-12-07T08:15:28;20.37;;;12.45;;
23317;SDS011;11831;55.918;37.746;2023-12-07T08:17:54;22.48;;;12.30;;
23317;SDS011;11831;55.918;37.746;2023-12-07T08:20:21;22.30;;;11.63;;
23317;SDS011;11831;55.918;37.746;2023-12-07T08:22:47;22.23;;;12.15;;
23317;SDS011;11831;55.918;37.746;2023-12-07T08:25:13;19.87;;;11.45;;
23317;SDS011;11831;55.918;37.746;2023-12-07T08:27:39;23.23;;;12.05;;
23317;SDS011;11831;55.918;37.746;2023-12-07T08:30:05;19.45;;;11.02;;
23317;SDS011;11831;55.918;37.746;2023-12-07T08:32:32;19.27;;;11.55;;
23317;SDS011;11831;55.918;37.746;2023-12-07T08:34:58;19.87;;;11.05;;
23317;SDS011;11831;55.918;37.746;2023-12-07T08:37:24;18.60;;;11.52;;
23317;SDS011;11831;55.918;37.746;2023-12-07T08:39:50;20.40;;;11.88;;
23317;SDS011;11831;55.918;37.746;2023-12-07T08:42:16;22.80;;;10.73;;
23317;SDS011;11831;55.918;37.746;2023-12-07T08:44:42;18.10;;;11.20;;
23317;SDS011;11831;55.918;37.746;2023-12-07T08:47:09;16.62;;;10.38;;
23317;SDS011;11831;55.918;37.746;2023-12-07T08:49:35;21.27;;;11.18;;
23317;SDS011;11831;55.918;37.746;2023-12-07T08:52:01;16.12;;;10.48;;
23317;SDS011;11831;55.918;37.746;2023-12-07T08:54:27;18.33;;;10.63;;
23317;SDS011;11831;55.918;37.746;2023-12-07T08:56:53;19.70;;;10.48;;
23317;SDS011;11831;55.918;37.746;2023-12-07T08:59:19;17.62;;;10.80;;
23317;SDS011;11831;55.918;37.746;2023-12-07T09:01:45;17.62;;;10.68;;
23317;SDS011;11831;55.918;37.746;2023-12-07T09:04:10;17.30;;;10.57;;
23317;SDS011;11831;55.918;37.746;2023-12-07T09:06:37;18.33;;;10.77;;
23317;SDS011;11831;55.918;37.746;2023-12-07T09:09:04;17.92;;;11.40;;
23317;SDS011;11831;55.918;37.746;2023-12-07T09:11:30;16.83;;;10.52;;
23317;SDS011;11831;55.918;37.746;2023-12-07T09:13:56;17.80;;;10.70;;
23317;SDS011;11831;55.918;37.746;2023-12-07T09:16:22;16.87;;;10.95;;
23317;SDS011;11831;55.918;37.746;2023-12-07T09:18:49;17.17;;;10.48;;
23317;SDS011;11831;55.918;37.746;2023-12-07T09:21:15;17.48;;;10.63;;
23317;SDS011;11831;55.918;37.746;2023-12-07T09:23:40;19.83;;;10.98;;
23317;SDS011;11831;55.918;37.746;2023-12-07T09:26:06;20.15;;;12.48;;
23317;SDS011;11831;55.918;37.746;2023-12-07T09:28:33;17.52;;;10.00;;
23317;SDS011;11831;55.918;37.746;2023-12-07T09:30:59;15.15;;;10.00;;
23317;SDS011;11831;55.918;37.746;2023-12-07T09:33:25;17.23;;;10.85;;
23317;SDS011;11831;55.918;37.746;2023-12-07T09:35:51;18.48;;;10.55;;
23317;SDS011;11831;55.918;37.746;2023-12-07T09:38:17;20.50;;;11.25;;
23317;SDS011;11831;55.918;37.746;2023-12-07T09:40:43;21.52;;;10.60;;
23317;SDS011;11831;55.918;37.746;2023-12-07T09:43:11;22.73;;;10.80;;
23317;SDS011;11831;55.918;37.746;2023-12-07T09:45:37;18.52;;;10.30;;
23317;SDS011;11831;55.918;37.746;2023-12-07T09:48:03;16.77;;;10.07;;
23317;SDS011;11831;55.918;37.746;2023-12-07T09:50:30;17.85;;;10.50;;
23317;SDS011;11831;55.918;37.746;2023-12-07T09:52:57;19.52;;;10.93;;
23317;SDS011;11831;55.918;37.746;2023-12-07T09:55:24;17.23;;;10.32;;
23317;SDS011;11831;55.918;37.746;2023-12-07T09:57:50;22.02;;;11.82;;
23317;SDS011;11831;55.918;37.746;2023-12-07T10:00:17;18.67;;;11.27;;
23317;SDS011;11831;55.918;37.746;2023-12-07T10:02:44;17.40;;;11.10;;
23317;SDS011;11831;55.918;37.746;2023-12-07T10:05:11;19.90;;;12.43;;
23317;SDS011;11831;55.918;37.746;2023-12-07T10:07:48;20.15;;;11.35;;
23317;SDS011;11831;55.918;37.746;2023-12-07T10:10:14;17.83;;;11.02;;
23317;SDS011;11831;55.918;37.746;2023-12-07T10:12:45;19.85;;;11.77;;
23317;SDS011;11831;55.918;37.746;2023-12-07T10:15:15;21.33;;;12.65;;
23317;SDS011;11831;55.918;37.746;2023-12-07T10:17:48;18.77;;;11.60;;
23317;SDS011;11831;55.918;37.746;2023-12-07T10:20:18;17.73;;;11.23;;
23317;SDS011;11831;55.918;37.746;2023-12-07T10:22:47;17.85;;;10.98;;
23317;SDS011;11831;55.918;37.746;2023-12-07T10:25:13;19.15;;;11.77;;
23317;SDS011;11831;55.918;37.746;2023-12-07T10:27:42;19.67;;;12.90;;
23317;SDS011;11831;55.918;37.746;2023-12-07T10:30:09;19.65;;;11.90;;
23317;SDS011;11831;55.918;37.746;2023-12-07T10:32:38;22.62;;;12.95;;
23317;SDS011;11831;55.918;37.746;2023-12-07T10:35:06;22.13;;;13.00;;
23317;SDS011;11831;55.918;37.746;2023-12-07T10:37:32;23.15;;;12.40;;
23317;SDS011;11831;55.918;37.746;2023-12-07T10:39:58;20.00;;;12.20;;
23317;SDS011;11831;55.918;37.746;2023-12-07T10:42:24;18.90;;;11.70;;
23317;SDS011;11831;55.918;37.746;2023-12-07T10:44:53;20.35;;;12.00;;
23317;SDS011;11831;55.918;37.746;2023-12-07T10:47:21;18.40;;;10.82;;
23317;SDS011;11831;55.918;37.746;2023-12-07T10:49:50;16.92;;;10.85;;
23317;SDS011;11831;55.918;37.746;2023-12-07T10:52:18;18.75;;;10.75;;
23317;SDS011;11831;55.918;37.746;2023-12-07T10:54:53;20.77;;;11.80;;
23317;SDS011;11831;55.918;37.746;2023-12-07T10:57:22;19.42;;;11.95;;
23317;SDS011;11831;55.918;37.746;2023-12-07T10:59:49;18.35;;;11.75;;
23317;SDS011;11831;55.918;37.746;2023-12-07T11:02:16;21.17;;;13.13;;
23317;SDS011;11831;55.918;37.746;2023-12-07T11:04:42;20.00;;;12.25;;
23317;SDS011;11831;55.918;37.746;2023-12-07T11:07:10;19.40;;;12.70;;
23317;SDS011;11831;55.918;37.746;2023-12-07T11:09:39;18.87;;;13.07;;
23317;SDS011;11831;55.918;37.746;2023-12-07T11:12:09;21.30;;;12.90;;
23317;SDS011;11831;55.918;37.746;2023-12-07T11:14:37;21.45;;;12.40;;
23317;SDS011;11831;55.918;37.746;2023-12-07T11:17:03;21.17;;;12.18;;
23317;SDS011;11831;55.918;37.746;2023-12-07T11:22:02;21.48;;;12.77;;
23317;SDS011;11831;55.918;37.746;2023-12-07T11:24:29;22.17;;;12.15;;
23317;SDS011;11831;55.918;37.746;2023-12-07T11:26:56;18.98;;;11.43;;
23317;SDS011;11831;55.918;37.746;2023-12-07T11:29:25;21.90;;;12.27;;
23317;SDS011;11831;55.918;37.746;2023-12-07T11:31:56;19.55;;;12.60;;
23317;SDS011;11831;55.918;37.746;2023-12-07T11:34:42;21.52;;;13.20;;
23317;SDS011;11831;55.918;37.746;2023-12-07T11:37:08;21.25;;;12.80;;
23317;SDS011;11831;55.918;37.746;2023-12-07T11:39:34;19.67;;;11.32;;
23317;SDS011;11831;55.918;37.746;2023-12-07T11:42:09;23.15;;;12.63;;
23317;SDS011;11831;55.918;37.746;2023-12-07T11:44:39;19.40;;;11.32;;
23317;SDS011;11831;55.918;37.746;2023-12-07T11:47:06;19.48;;;12.02;;
23317;SDS011;11831;55.918;37.746;2023-12-07T11:49:32;22.62;;;12.57;;
23317;SDS011;11831;55.918;37.746;2023-12-07T11:51:59;21.35;;;12.73;;
23317;SDS011;11831;55.918;37.746;2023-12-07T11:54:28;21.83;;;12.65;;
23317;SDS011;11831;55.918;37.746;2023-12-07T11:56:54;18.90;;;11.85;;
23317;SDS011;11831;55.918;37.746;2023-12-07T11:59:20;20.05;;;11.07;;
23317;SDS011;11831;55.918;37.746;2023-12-07T12:01:47;19.73;;;11.43;;
23317;SDS011;11831;55.918;37.746;2023-12-07T12:04:16;19.17;;;11.30;;
23317;SDS011;11831;55.918;37.746;2023-12-07T12:06:43;20.08;;;11.82;;
23317;SDS011;11831;55.918;37.746;2023-12-07T12:09:09;24.27;;;12.30;;
23317;SDS011;11831;55.918;37.746;2023-12-07T12:11:37;23.10;;;11.93;;
23317;SDS011;11831;55.918;37.746;2023-12-07T12:14:03;19.73;;;10.90;;
23317;SDS011;11831;55.918;37.746;2023-12-07T12:16:29;16.87;;;10.45;;
23317;SDS011;11831;55.918;37.746;2023-12-07T12:18:55;16.73;;;10.82;;
23317;SDS011;11831;55.918;37.746;2023-12-07T12:21:22;18.90;;;11.38;;
23317;SDS011;11831;55.918;37.746;2023-12-07T12:23:48;18.12;;;11.35;;
23317;SDS011;11831;55.918;37.746;2023-12-07T12:26:14;20.27;;;11.75;;
23317;SDS011;11831;55.918;37.746;2023-12-07T12:28:40;17.08;;;10.00;;
23317;SDS011;11831;55.918;37.746;2023-12-07T12:31:09;18.45;;;10.75;;
23317;SDS011;11831;55.918;37.746;2023-12-07T12:33:37;20.45;;;11.35;;
23317;SDS011;11831;55.918;37.746;2023-12-07T12:36:04;19.75;;;11.80;;
23317;SDS011;11831;55.918;37.746;2023-12-07T12:38:32;21.05;;;10.63;;
23317;SDS011;11831;55.918;37.746;2023-12-07T12:40:59;18.77;;;12.07;;
23317;SDS011;11831;55.918;37.746;2023-12-07T12:43:25;19.70;;;11.50;;
23317;SDS011;11831;55.918;37.746;2023-12-07T12:45:51;18.42;;;10.60;;
23317;SDS011;11831;55.918;37.746;2023-12-07T12:48:19;17.27;;;10.38;;
23317;SDS011;11831;55.918;37.746;2023-12-07T12:50:45;15.32;;;10.25;;
23317;SDS011;11831;55.918;37.746;2023-12-07T12:53:11;20.20;;;11.35;;
23317;SDS011;11831;55.918;37.746;2023-12-07T12:55:39;20.90;;;9.80;;
23317;SDS011;11831;55.918;37.746;2023-12-07T12:58:06;17.08;;;10.30;;
23317;SDS011;11831;55.918;37.746;2023-12-07T13:00:33;17.10;;;9.55;;
23317;SDS011;11831;55.918;37.746;2023-12-07T13:03:00;15.68;;;9.30;;
23317;SDS011;11831;55.918;37.746;2023-12-07T13:05:26;16.87;;;9.85;;
23317;SDS011;11831;55.918;37.746;2023-12-07T13:07:52;18.42;;;10.73;;
23317;SDS011;11831;55.918;37.746;2023-12-07T13:10:19;18.02;;;10.80;;
23317;SDS011;11831;55.918;37.746;2023-12-07T13:12:45;17.70;;;10.52;;
23317;SDS011;11831;55.918;37.746;2023-12-07T13:15:14;18.67;;;10.77;;
23317;SDS011;11831;55.918;37.746;2023-12-07T13:17:41;16.23;;;9.80;;
23317;SDS011;11831;55.918;37.746;2023-12-07T13:20:07;17.85;;;10.32;;
23317;SDS011;11831;55.918;37.746;2023-12-07T13:22:37;16.67;;;10.35;;
23317;SDS011;11831;55.918;37.746;2023-12-07T13:25:03;18.42;;;10.15;;
23317;SDS011;11831;55.918;37.746;2023-12-07T13:27:29;18.98;;;10.65;;
23317;SDS011;11831;55.918;37.746;2023-12-07T13:29:55;19.27;;;10.45;;
23317;SDS011;11831;55.918;37.746;2023-12-07T13:32:21;19.17;;;10.35;;
23317;SDS011;11831;55.918;37.746;2023-12-07T13:34:47;17.10;;;10.27;;
23317;SDS011;11831;55.918;37.746;2023-12-07T13:37:13;19.75;;;10.93;;
23317;SDS011;11831;55.918;37.746;2023-12-07T13:39:39;19.17;;;11.27;;
23317;SDS011;11831;55.918;37.746;2023-12-07T13:42:05;21.00;;;11.75;;
23317;SDS011;11831;55.918;37.746;2023-12-07T13:44:31;18.67;;;10.88;;
23317;SDS011;11831;55.918;37.746;2023-12-07T13:46:58;20.20;;;11.15;;
23317;SDS011;11831;55.918;37.746;2023-12-07T13:49:24;18.95;;;11.32;;
23317;SDS011;11831;55.918;37.746;2023-12-07T13:51:50;19.70;;;11.10;;
23317;SDS011;11831;55.918;37.746;2023-12-07T13:54:16;19.87;;;11.20;;
23317;SDS011;11831;55.918;37.746;2023-12-07T13:56:42;23.70;;;10.90;;
23317;SDS011;11831;55.918;37.746;2023-12-07T13:59:08;17.45;;;10.63;;
23317;SDS011;11831;55.918;37.746;2023-12-07T14:01:36;19.60;;;11.57;;
23317;SDS011;11831;55.918;37.746;2023-12-07T14:04:02;20.02;;;11.48;;
23317;SDS011;11831;55.918;37.746;2023-12-07T14:06:28;21.02;;;12.40;;
23317;SDS011;11831;55.918;37.746;2023-12-07T14:08:54;19.95;;;11.00;;
23317;SDS011;11831;55.918;37.746;2023-12-07T14:11:20;17.62;;;11.27;;